createdAt,value
2018-04-16T00:01:41.190Z,100664.17
2018-04-16T00:06:43.274Z,100664.36
2018-04-16T00:11:44.594Z,100655.28
2018-04-16T00:16:46.650Z,100661.97
2018-04-16T00:21:47.983Z,100668.72
2018-04-16T00:26:50.061Z,100667.43
2018-04-16T00:31:57.616Z,100658.92
2018-04-16T00:37:05.661Z,100650.94
2018-04-16T00:42:13.939Z,100647.88
2018-04-16T00:47:21.409Z,100655.92
2018-04-16T00:52:28.618Z,100655.78
2018-04-16T00:57:36.106Z,100649.11
2018-04-16T01:02:43.498Z,100664.28
2018-04-16T01:07:50.745Z,100689.52
2018-04-16T01:12:58.162Z,100687.67
2018-04-16T01:18:05.628Z,100686.02
2018-04-16T01:23:13.041Z,100677.69
2018-04-16T01:28:20.569Z,100678.80
2018-04-16T01:33:28.009Z,100670.88
2018-04-16T01:38:35.393Z,100674.66
2018-04-16T01:43:42.774Z,100667.75
2018-04-16T01:54:35.232Z,100661.39
2018-04-16T01:59:42.743Z,100662.23
2018-04-16T02:04:50.226Z,100666.11
2018-04-16T02:09:58.440Z,100659.22
2018-04-16T02:15:05.786Z,100666.91
2018-04-16T02:20:13.118Z,100662.84
2018-04-16T02:25:20.469Z,100672.52
2018-04-16T02:30:28.630Z,100682.06
2018-04-16T02:35:36.618Z,100688.88
2018-04-16T02:40:44.030Z,100678.13
2018-04-16T02:45:51.359Z,100678.73
2018-04-16T02:50:58.768Z,100679.66
2018-04-16T02:56:06.858Z,100682.30
2018-04-16T03:01:14.234Z,100676.36
2018-04-16T03:06:21.799Z,100674.70
2018-04-16T03:11:29.081Z,100667.56
2018-04-16T03:16:36.581Z,100667.45
2018-04-16T03:21:43.942Z,100663.38
2018-04-16T03:26:51.375Z,100668.10
2018-04-16T03:31:58.685Z,100673.47
2018-04-16T03:37:06.157Z,100678.81
2018-04-16T03:42:13.527Z,100687.73
2018-04-16T03:47:21.001Z,100697.63
2018-04-16T03:52:28.350Z,100703.23
2018-04-16T03:57:29.669Z,100708.78
2018-04-16T04:02:31.738Z,100709.14
2018-04-16T04:07:33.029Z,100708.47
2018-04-16T04:12:34.340Z,100707.72
2018-04-16T04:17:36.393Z,100716.81
2018-04-16T04:22:56.117Z,100728.49
2018-04-16T04:28:16.117Z,100728.84
2018-04-16T04:33:17.431Z,100736.94
2018-04-16T04:38:18.747Z,100735.04
2018-04-16T04:43:20.048Z,100739.04
2018-04-16T04:48:21.361Z,100742.80
2018-04-16T04:53:23.405Z,100745.64
2018-04-16T04:58:24.744Z,100744.91
2018-04-16T05:03:26.821Z,100744.03
2018-04-16T05:08:28.138Z,100745.63
2018-04-16T05:13:29.422Z,100755.77
2018-04-16T05:18:31.485Z,100758.08
2018-04-16T05:23:32.832Z,100762.17
2018-04-16T05:28:34.894Z,100768.03
2018-04-16T05:33:36.216Z,100778.70
2018-04-16T05:38:37.523Z,100783.27
2018-04-16T05:43:39.592Z,100779.06
2018-04-16T05:48:40.906Z,100791.91
2018-04-16T05:53:42.957Z,100794.55
2018-04-16T05:58:44.267Z,100803.80
2018-04-16T06:03:45.594Z,100801.44
2018-04-16T06:08:47.653Z,100805.92
2018-04-16T06:13:48.974Z,100808.63
2018-04-16T06:18:50.303Z,100813.97
2018-04-16T06:23:51.614Z,100808.97
2018-04-16T06:28:52.926Z,100812.28
2018-04-16T06:33:54.221Z,100805.97
2018-04-16T06:38:55.530Z,100813.97
2018-04-16T06:43:57.585Z,100816.95
2018-04-16T06:48:58.925Z,100824.13
2018-04-16T06:54:00.953Z,100829.33
2018-04-16T06:59:02.304Z,100844.70
2018-04-16T07:04:03.655Z,100853.17
2018-04-16T07:09:05.761Z,100863.00
2018-04-16T07:14:07.082Z,100866.09
2018-04-16T07:19:08.429Z,100860.17
2018-04-16T07:24:09.734Z,100860.81
2018-04-16T07:29:11.053Z,100869.53
2018-04-16T07:34:12.350Z,100872.26
2018-04-16T07:39:14.411Z,100877.47
2018-04-16T07:44:15.718Z,100879.72
2018-04-16T07:49:17.033Z,100888.13
2018-04-16T07:54:18.327Z,100891.69
2018-04-16T07:59:19.618Z,100890.78
2018-04-16T08:04:21.671Z,100897.31
2018-04-16T08:09:22.968Z,100899.37
2018-04-16T08:14:24.288Z,100892.81
2018-04-16T08:19:26.350Z,100894.92
2018-04-16T08:24:27.807Z,100900.41
2018-04-16T08:29:29.118Z,100893.84
2018-04-16T08:34:30.409Z,100894.17
2018-04-16T08:39:31.733Z,100895.19
2018-04-16T08:44:33.029Z,100900.71
2018-04-16T08:49:34.330Z,100904.73
2018-04-16T08:54:35.665Z,100908.20
2018-04-16T08:59:36.979Z,100918.41
2018-04-16T09:04:38.310Z,100918.99
2018-04-16T09:09:40.382Z,100924.10
2018-04-16T09:14:41.734Z,100930.30
2018-04-16T09:19:43.041Z,100936.19
2018-04-16T09:24:44.347Z,100926.67
2018-04-16T09:29:45.650Z,100932.50
2018-04-16T09:34:46.968Z,100928.83
2018-04-16T09:39:48.318Z,100929.10
2018-04-16T09:44:49.611Z,100923.55
2018-04-16T09:49:50.918Z,100917.77
2018-04-16T09:54:52.219Z,100924.87
2018-04-16T09:59:54.261Z,100922.41
2018-04-16T10:04:55.563Z,100929.12
2018-04-16T10:09:57.037Z,100930.05
2018-04-16T10:14:58.357Z,100931.67
2018-04-16T10:19:59.688Z,100930.39
2018-04-16T10:25:01.804Z,100929.97
2018-04-16T10:30:03.859Z,100939.41
2018-04-16T10:35:06.184Z,100934.78
2018-04-16T10:40:08.289Z,100949.13
2018-04-16T10:45:09.634Z,100944.56
2018-04-16T10:50:10.991Z,100940.83
2018-04-16T10:55:12.319Z,100934.87
2018-04-16T11:00:13.646Z,100940.06
2018-04-16T11:05:14.984Z,100950.59
2018-04-16T11:10:16.318Z,100947.35
2018-04-16T11:15:17.655Z,100953.11
2018-04-16T11:20:19.740Z,100955.84
2018-04-16T11:25:21.053Z,100964.44
2018-04-16T11:30:23.137Z,100964.23
2018-04-16T11:35:24.462Z,100967.39
2018-04-16T11:40:25.762Z,100972.17
2018-04-16T11:45:27.069Z,100977.80
2018-04-16T11:50:28.394Z,100982.07
2018-04-16T11:55:29.730Z,100990.94
2018-04-16T12:00:31.068Z,100994.42
2018-04-16T12:05:32.378Z,100991.81
2018-04-16T12:10:34.438Z,100988.84
2018-04-16T12:15:35.753Z,100994.59
2018-04-16T12:20:37.087Z,100993.37
2018-04-16T12:25:38.439Z,101002.35
2018-04-16T12:30:39.762Z,101018.73
2018-04-16T12:35:41.087Z,101020.84
2018-04-16T12:40:42.418Z,101018.33
2018-04-16T12:45:44.508Z,101029.77
2018-04-16T12:50:45.861Z,101020.27
2018-04-16T12:55:47.177Z,101020.77
2018-04-16T13:00:48.510Z,101030.05
2018-04-16T13:05:49.841Z,101029.46
2018-04-16T13:10:51.151Z,101027.69
2018-04-16T13:15:52.470Z,101026.72
2018-04-16T13:20:54.511Z,101024.83
2018-04-16T13:25:55.842Z,101027.29
2018-04-16T13:30:57.180Z,101041.14
2018-04-16T13:35:58.518Z,101038.95
2018-04-16T13:40:59.836Z,101027.23
2018-04-16T13:46:01.895Z,101042.35
2018-04-16T13:51:03.277Z,101054.06
2018-04-16T13:56:04.626Z,101057.52
2018-04-16T14:01:05.937Z,101049.86
2018-04-16T14:06:07.254Z,101055.59
2018-04-16T14:11:08.617Z,101051.20
2018-04-16T14:16:09.960Z,101058.02
2018-04-16T14:21:11.281Z,101061.61
2018-04-16T14:26:12.606Z,101059.55
2018-04-16T14:31:13.924Z,101058.77
2018-04-16T14:36:15.234Z,101058.93
2018-04-16T14:41:17.317Z,101059.83
2018-04-16T14:46:18.689Z,101065.17
2018-04-16T14:51:20.061Z,101059.24
2018-04-16T14:56:21.382Z,101073.69
2018-04-16T15:01:22.727Z,101082.76
2018-04-16T15:06:24.077Z,101084.72
2018-04-16T15:11:26.166Z,101088.78
2018-04-16T15:16:27.485Z,101087.89
2018-04-16T15:21:29.539Z,101092.72
2018-04-16T15:26:30.855Z,101096.26
2018-04-16T15:31:32.166Z,101105.51
2018-04-16T15:36:34.217Z,101103.69
2018-04-16T15:41:35.517Z,101108.05
2018-04-16T15:46:36.840Z,101112.20
2018-04-16T15:51:38.171Z,101112.37
2018-04-16T15:56:39.486Z,101106.92
2018-04-16T16:01:40.798Z,101111.99
2018-04-16T16:06:42.105Z,101109.41
2018-04-16T16:11:44.294Z,101112.28
2018-04-16T16:16:45.592Z,101114.11
2018-04-16T16:21:47.665Z,101123.01
2018-04-16T16:26:48.985Z,101128.91
2018-04-16T16:31:50.377Z,101132.98
2018-04-16T16:36:51.692Z,101144.23
2018-04-16T16:41:53.030Z,101144.38
2018-04-16T16:46:54.341Z,101150.59
2018-04-16T16:51:55.671Z,101156.59
2018-04-16T16:56:56.994Z,101161.59
2018-04-16T17:01:58.327Z,101166.81
2018-04-16T17:07:00.405Z,101174.10
2018-04-16T17:12:01.721Z,101188.09
2018-04-16T17:17:03.770Z,101188.02
2018-04-16T17:22:05.103Z,101196.61
2018-04-16T17:27:07.162Z,101208.00
2018-04-16T17:32:08.514Z,101211.16
2018-04-16T17:37:09.856Z,101221.71
2018-04-16T17:42:11.198Z,101228.55
2018-04-16T17:47:12.527Z,101244.23
2018-04-16T17:52:14.000Z,101257.97
2018-04-16T17:57:15.317Z,101269.91
2018-04-16T18:02:16.622Z,101269.98
2018-04-16T18:07:18.695Z,101280.98
2018-04-16T18:12:20.025Z,101287.08
2018-04-16T18:17:21.359Z,101303.81
2018-04-16T18:22:22.689Z,101305.46
2018-04-16T18:27:24.095Z,101309.94
2018-04-16T18:32:25.456Z,101332.88
2018-04-16T18:37:26.786Z,101339.63
2018-04-16T18:42:28.869Z,101358.20
2018-04-16T18:47:30.229Z,101368.59
2018-04-16T18:52:31.594Z,101368.50
2018-04-16T18:57:32.965Z,101379.82
2018-04-16T19:02:35.025Z,101390.33
2018-04-16T19:07:36.422Z,101390.30
2018-04-16T19:12:39.140Z,101405.91
2018-04-16T19:17:47.018Z,101410.02
2018-04-16T19:22:48.633Z,101421.09
2018-04-16T19:33:34.069Z,101437.83
2018-04-16T19:38:35.411Z,101445.95
2018-04-16T19:43:37.531Z,101453.56
2018-04-16T19:48:44.931Z,101469.55
2018-04-16T19:53:46.293Z,101478.59
2018-04-16T19:58:47.610Z,101480.92
2018-04-16T20:03:55.756Z,101492.66
2018-04-16T20:08:57.049Z,101485.00
2018-04-16T20:13:58.380Z,101493.91
2018-04-16T20:18:59.673Z,101500.20
2018-04-16T20:24:00.962Z,101514.03
2018-04-16T20:29:02.335Z,101517.19
2018-04-16T20:34:03.672Z,101529.71
2018-04-16T20:39:05.026Z,101538.06
2018-04-16T20:44:06.430Z,101546.44
2018-04-16T20:49:07.769Z,101556.72
2018-04-16T20:54:09.126Z,101556.71
2018-04-16T20:59:10.450Z,101562.07
2018-04-16T21:04:12.510Z,101569.11
2018-04-16T21:09:13.850Z,101570.38
2018-04-16T21:14:15.153Z,101591.17
2018-04-16T21:19:17.231Z,101599.66
2018-04-16T21:24:18.535Z,101598.27
2018-04-16T21:29:19.829Z,101603.48
2018-04-16T21:34:21.906Z,101608.64
2018-04-16T21:39:23.209Z,101615.84
2018-04-16T21:44:24.525Z,101617.43
2018-04-16T21:49:25.865Z,101620.27
2018-04-16T21:54:27.200Z,101624.46
2018-04-16T21:59:29.270Z,101625.83
2018-04-16T22:04:31.377Z,101625.05
2018-04-16T22:09:32.735Z,101632.59
2018-04-16T22:14:34.073Z,101629.15
2018-04-16T22:19:35.449Z,101641.56
2018-04-16T22:24:36.763Z,101643.11
2018-04-16T22:29:38.069Z,101648.86
2018-04-16T22:34:39.438Z,101649.27
2018-04-16T22:39:41.508Z,101650.74
2018-04-16T22:44:42.845Z,101663.14
2018-04-16T22:49:44.170Z,101661.94
2018-04-16T22:54:45.477Z,101669.17
2018-04-16T22:59:46.793Z,101679.62
2018-04-16T23:04:48.101Z,101682.91
2018-04-16T23:09:49.401Z,101693.92
2018-04-16T23:14:50.694Z,101698.30
2018-04-16T23:19:51.991Z,101714.27
2018-04-16T23:24:53.325Z,101714.47
2018-04-16T23:29:54.633Z,101713.39
2018-04-16T23:34:56.677Z,101719.33
2018-04-16T23:39:58.026Z,101728.47
2018-04-16T23:44:59.345Z,101729.14
2018-04-16T23:50:00.647Z,101736.54
2018-04-16T23:55:01.985Z,101739.70
